sensor_id;sensor_type;location;lat;lon;timestamp;P1;durP1;ratioP1;P2;durP2;ratioP2
32038;SDS011;18549;42.286;22.688;2023-08-06T00:01:21;5.97;;;3.40;;
32038;SDS011;18549;42.286;22.688;2023-08-06T00:03:50;3.53;;;2.90;;
32038;SDS011;18549;42.286;22.688;2023-08-06T00:06:21;5.03;;;3.05;;
32038;SDS011;18549;42.286;22.688;2023-08-06T00:08:48;7.72;;;3.62;;
32038;SDS011;18549;42.286;22.688;2023-08-06T00:11:16;9.23;;;3.40;;
32038;SDS011;18549;42.286;22.688;2023-08-06T00:13:43;11.80;;;3.40;;
32038;SDS011;18549;42.286;22.688;2023-08-06T00:16:11;7.03;;;3.87;;
32038;SDS011;18549;42.286;22.688;2023-08-06T00:18:39;8.25;;;2.92;;
32038;SDS011;18549;42.286;22.688;2023-08-06T00:21:08;5.22;;;2.85;;
32038;SDS011;18549;42.286;22.688;2023-08-06T00:23:37;6.80;;;3.77;;
32038;SDS011;18549;42.286;22.688;2023-08-06T00:26:05;7.07;;;3.30;;
32038;SDS011;18549;42.286;22.688;2023-08-06T00:28:32;9.13;;;3.85;;
32038;SDS011;18549;42.286;22.688;2023-08-06T00:31:00;5.53;;;2.95;;
32038;SDS011;18549;42.286;22.688;2023-08-06T00:33:27;6.15;;;2.95;;
32038;SDS011;18549;42.286;22.688;2023-08-06T00:35:55;5.15;;;2.65;;
32038;SDS011;18549;42.286;22.688;2023-08-06T00:38:24;3.22;;;2.70;;
32038;SDS011;18549;42.286;22.688;2023-08-06T00:40:52;9.00;;;3.60;;
32038;SDS011;18549;42.286;22.688;2023-08-06T00:43:20;5.18;;;2.78;;
32038;SDS011;18549;42.286;22.688;2023-08-06T00:45:47;4.37;;;2.95;;
32038;SDS011;18549;42.286;22.688;2023-08-06T00:48:17;5.93;;;3.30;;
32038;SDS011;18549;42.286;22.688;2023-08-06T00:50:44;4.50;;;2.28;;
32038;SDS011;18549;42.286;22.688;2023-08-06T00:53:12;5.40;;;2.47;;
32038;SDS011;18549;42.286;22.688;2023-08-06T00:55:42;6.45;;;3.12;;
32038;SDS011;18549;42.286;22.688;2023-08-06T00:58:12;7.70;;;2.67;;
32038;SDS011;18549;42.286;22.688;2023-08-06T01:00:40;5.75;;;2.87;;
32038;SDS011;18549;42.286;22.688;2023-08-06T01:03:08;6.43;;;3.40;;
32038;SDS011;18549;42.286;22.688;2023-08-06T01:05:35;6.45;;;3.30;;
32038;SDS011;18549;42.286;22.688;2023-08-06T01:08:07;5.10;;;2.90;;
32038;SDS011;18549;42.286;22.688;2023-08-06T01:10:48;7.00;;;3.15;;
32038;SDS011;18549;42.286;22.688;2023-08-06T01:13:29;5.87;;;2.87;;
32038;SDS011;18549;42.286;22.688;2023-08-06T01:16:00;4.47;;;3.10;;
32038;SDS011;18549;42.286;22.688;2023-08-06T01:18:31;5.95;;;3.10;;
32038;SDS011;18549;42.286;22.688;2023-08-06T01:21:00;6.50;;;3.53;;
32038;SDS011;18549;42.286;22.688;2023-08-06T01:23:27;9.15;;;3.80;;
32038;SDS011;18549;42.286;22.688;2023-08-06T01:25:56;7.80;;;3.87;;
32038;SDS011;18549;42.286;22.688;2023-08-06T01:28:32;5.87;;;3.33;;
32038;SDS011;18549;42.286;22.688;2023-08-06T01:31:07;9.23;;;3.87;;
32038;SDS011;18549;42.286;22.688;2023-08-06T01:33:37;7.12;;;3.95;;
32038;SDS011;18549;42.286;22.688;2023-08-06T01:36:12;5.47;;;3.53;;
32038;SDS011;18549;42.286;22.688;2023-08-06T01:38:41;9.88;;;4.60;;
32038;SDS011;18549;42.286;22.688;2023-08-06T01:41:11;12.27;;;4.00;;
32038;SDS011;18549;42.286;22.688;2023-08-06T01:43:39;5.95;;;3.17;;
32038;SDS011;18549;42.286;22.688;2023-08-06T01:46:06;7.57;;;3.75;;
32038;SDS011;18549;42.286;22.688;2023-08-06T01:48:34;5.87;;;3.47;;
32038;SDS011;18549;42.286;22.688;2023-08-06T01:51:03;3.72;;;3.30;;
32038;SDS011;18549;42.286;22.688;2023-08-06T01:53:33;4.28;;;3.25;;
32038;SDS011;18549;42.286;22.688;2023-08-06T01:56:03;6.85;;;3.70;;
32038;SDS011;18549;42.286;22.688;2023-08-06T01:58:31;4.28;;;3.10;;
32038;SDS011;18549;42.286;22.688;2023-08-06T02:01:00;4.07;;;3.05;;
32038;SDS011;18549;42.286;22.688;2023-08-06T02:03:29;10.13;;;3.72;;
32038;SDS011;18549;42.286;22.688;2023-08-06T02:05:57;10.02;;;3.30;;
32038;SDS011;18549;42.286;22.688;2023-08-06T02:08:25;6.15;;;3.28;;
32038;SDS011;18549;42.286;22.688;2023-08-06T02:10:55;5.07;;;3.00;;
32038;SDS011;18549;42.286;22.688;2023-08-06T02:13:23;10.23;;;2.83;;
32038;SDS011;18549;42.286;22.688;2023-08-06T02:15:51;8.52;;;3.37;;
32038;SDS011;18549;42.286;22.688;2023-08-06T02:18:18;7.55;;;2.50;;
32038;SDS011;18549;42.286;22.688;2023-08-06T02:20:54;4.65;;;3.12;;
32038;SDS011;18549;42.286;22.688;2023-08-06T02:23:23;6.78;;;2.40;;
32038;SDS011;18549;42.286;22.688;2023-08-06T02:25:57;3.80;;;2.35;;
32038;SDS011;18549;42.286;22.688;2023-08-06T02:28:25;4.55;;;2.72;;
32038;SDS011;18549;42.286;22.688;2023-08-06T02:30:53;7.20;;;2.40;;
32038;SDS011;18549;42.286;22.688;2023-08-06T02:33:21;6.72;;;2.87;;
32038;SDS011;18549;42.286;22.688;2023-08-06T02:35:48;4.60;;;2.65;;
32038;SDS011;18549;42.286;22.688;2023-08-06T02:38:16;17.52;;;2.67;;
32038;SDS011;18549;42.286;22.688;2023-08-06T02:40:43;5.37;;;2.20;;
32038;SDS011;18549;42.286;22.688;2023-08-06T02:43:13;4.05;;;2.80;;
32038;SDS011;18549;42.286;22.688;2023-08-06T02:45:41;5.47;;;3.25;;
32038;SDS011;18549;42.286;22.688;2023-08-06T02:48:08;8.73;;;2.47;;
32038;SDS011;18549;42.286;22.688;2023-08-06T02:50:39;5.85;;;2.58;;
32038;SDS011;18549;42.286;22.688;2023-08-06T02:53:07;3.35;;;3.00;;
32038;SDS011;18549;42.286;22.688;2023-08-06T02:55:35;7.25;;;2.33;;
32038;SDS011;18549;42.286;22.688;2023-08-06T02:58:02;5.18;;;2.87;;
32038;SDS011;18549;42.286;22.688;2023-08-06T03:00:31;4.40;;;2.90;;
32038;SDS011;18549;42.286;22.688;2023-08-06T03:02:59;9.07;;;2.80;;
32038;SDS011;18549;42.286;22.688;2023-08-06T03:05:27;6.80;;;2.80;;
32038;SDS011;18549;42.286;22.688;2023-08-06T03:07:54;3.70;;;3.05;;
32038;SDS011;18549;42.286;22.688;2023-08-06T03:10:22;5.18;;;2.78;;
32038;SDS011;18549;42.286;22.688;2023-08-06T03:12:49;6.62;;;3.12;;
32038;SDS011;18549;42.286;22.688;2023-08-06T03:15:17;3.12;;;2.30;;
32038;SDS011;18549;42.286;22.688;2023-08-06T03:17:46;2.60;;;2.25;;
32038;SDS011;18549;42.286;22.688;2023-08-06T03:20:13;5.82;;;3.05;;
32038;SDS011;18549;42.286;22.688;2023-08-06T03:22:41;5.57;;;2.25;;
32038;SDS011;18549;42.286;22.688;2023-08-06T03:25:08;4.65;;;2.00;;
32038;SDS011;18549;42.286;22.688;2023-08-06T03:27:36;7.60;;;1.80;;
32038;SDS011;18549;42.286;22.688;2023-08-06T03:30:03;4.10;;;1.55;;
32038;SDS011;18549;42.286;22.688;2023-08-06T03:32:31;2.62;;;1.50;;
32038;SDS011;18549;42.286;22.688;2023-08-06T03:35:00;4.85;;;1.60;;
32038;SDS011;18549;42.286;22.688;2023-08-06T03:37:27;2.90;;;1.58;;
32038;SDS011;18549;42.286;22.688;2023-08-06T03:39:55;2.83;;;1.55;;
32038;SDS011;18549;42.286;22.688;2023-08-06T03:42:22;5.35;;;2.33;;
32038;SDS011;18549;42.286;22.688;2023-08-06T03:44:49;5.43;;;2.08;;
32038;SDS011;18549;42.286;22.688;2023-08-06T03:47:17;7.85;;;2.72;;
32038;SDS011;18549;42.286;22.688;2023-08-06T03:49:44;6.12;;;2.53;;
32038;SDS011;18549;42.286;22.688;2023-08-06T03:52:13;5.40;;;2.10;;
32038;SDS011;18549;42.286;22.688;2023-08-06T03:54:41;4.00;;;2.05;;
32038;SDS011;18549;42.286;22.688;2023-08-06T03:57:08;4.50;;;1.73;;
32038;SDS011;18549;42.286;22.688;2023-08-06T03:59:36;2.40;;;1.90;;
32038;SDS011;18549;42.286;22.688;2023-08-06T04:02:04;7.25;;;3.25;;
32038;SDS011;18549;42.286;22.688;2023-08-06T04:04:31;4.05;;;2.42;;
32038;SDS011;18549;42.286;22.688;2023-08-06T04:06:59;5.80;;;2.80;;
32038;SDS011;18549;42.286;22.688;2023-08-06T04:11:57;7.37;;;3.05;;
32038;SDS011;18549;42.286;22.688;2023-08-06T04:14:27;5.22;;;3.08;;
32038;SDS011;18549;42.286;22.688;2023-08-06T04:16:55;10.65;;;2.53;;
32038;SDS011;18549;42.286;22.688;2023-08-06T04:19:22;7.47;;;3.03;;
32038;SDS011;18549;42.286;22.688;2023-08-06T04:21:50;2.95;;;2.55;;
32038;SDS011;18549;42.286;22.688;2023-08-06T04:24:17;6.65;;;3.10;;
32038;SDS011;18549;42.286;22.688;2023-08-06T04:26:46;6.50;;;3.25;;
32038;SDS011;18549;42.286;22.688;2023-08-06T04:29:14;12.98;;;2.87;;
32038;SDS011;18549;42.286;22.688;2023-08-06T04:31:42;11.00;;;3.03;;
32038;SDS011;18549;42.286;22.688;2023-08-06T04:34:09;8.20;;;3.20;;
32038;SDS011;18549;42.286;22.688;2023-08-06T04:36:37;4.57;;;3.22;;
32038;SDS011;18549;42.286;22.688;2023-08-06T04:39:05;9.93;;;3.17;;
32038;SDS011;18549;42.286;22.688;2023-08-06T04:41:32;6.00;;;2.97;;
32038;SDS011;18549;42.286;22.688;2023-08-06T04:44:01;8.32;;;3.58;;
32038;SDS011;18549;42.286;22.688;2023-08-06T04:46:29;7.25;;;3.67;;
32038;SDS011;18549;42.286;22.688;2023-08-06T04:48:56;5.60;;;3.15;;
32038;SDS011;18549;42.286;22.688;2023-08-06T04:51:24;9.02;;;2.78;;
32038;SDS011;18549;42.286;22.688;2023-08-06T04:53:51;4.95;;;3.08;;
32038;SDS011;18549;42.286;22.688;2023-08-06T04:56:19;8.30;;;3.10;;
32038;SDS011;18549;42.286;22.688;2023-08-06T04:58:46;7.47;;;3.78;;
32038;SDS011;18549;42.286;22.688;2023-08-06T05:01:16;5.37;;;2.97;;
32038;SDS011;18549;42.286;22.688;2023-08-06T05:03:43;6.22;;;3.58;;
32038;SDS011;18549;42.286;22.688;2023-08-06T05:06:10;8.38;;;3.75;;
32038;SDS011;18549;42.286;22.688;2023-08-06T05:08:38;7.18;;;3.92;;
32038;SDS011;18549;42.286;22.688;2023-08-06T05:11:05;6.40;;;4.07;;
32038;SDS011;18549;42.286;22.688;2023-08-06T05:13:33;10.23;;;4.18;;
32038;SDS011;18549;42.286;22.688;2023-08-06T05:16:00;9.75;;;4.00;;
32038;SDS011;18549;42.286;22.688;2023-08-06T05:18:29;7.43;;;3.72;;
32038;SDS011;18549;42.286;22.688;2023-08-06T05:20:57;7.43;;;3.15;;
32038;SDS011;18549;42.286;22.688;2023-08-06T05:23:24;6.12;;;3.40;;
32038;SDS011;18549;42.286;22.688;2023-08-06T05:25:52;4.47;;;3.45;;
32038;SDS011;18549;42.286;22.688;2023-08-06T05:28:19;4.75;;;2.28;;
32038;SDS011;18549;42.286;22.688;2023-08-06T05:30:50;3.08;;;2.62;;
32038;SDS011;18549;42.286;22.688;2023-08-06T05:33:18;13.95;;;3.20;;
32038;SDS011;18549;42.286;22.688;2023-08-06T05:35:47;4.47;;;2.53;;
32038;SDS011;18549;42.286;22.688;2023-08-06T05:38:17;4.90;;;3.28;;
32038;SDS011;18549;42.286;22.688;2023-08-06T05:40:45;9.43;;;2.92;;
32038;SDS011;18549;42.286;22.688;2023-08-06T05:43:14;4.20;;;3.35;;
32038;SDS011;18549;42.286;22.688;2023-08-06T05:45:44;4.65;;;2.72;;
32038;SDS011;18549;42.286;22.688;2023-08-06T05:48:12;5.00;;;2.92;;
32038;SDS011;18549;42.286;22.688;2023-08-06T05:50:39;3.20;;;2.72;;
32038;SDS011;18549;42.286;22.688;2023-08-06T05:53:09;6.55;;;2.80;;
32038;SDS011;18549;42.286;22.688;2023-08-06T05:55:36;4.47;;;2.67;;
32038;SDS011;18549;42.286;22.688;2023-08-06T05:58:05;9.50;;;3.47;;
32038;SDS011;18549;42.286;22.688;2023-08-06T06:00:32;11.30;;;3.47;;
32038;SDS011;18549;42.286;22.688;2023-08-06T06:03:01;11.35;;;3.80;;
32038;SDS011;18549;42.286;22.688;2023-08-06T06:05:28;8.73;;;2.78;;
32038;SDS011;18549;42.286;22.688;2023-08-06T06:07:55;3.15;;;2.58;;
32038;SDS011;18549;42.286;22.688;2023-08-06T06:10:24;6.45;;;2.87;;
32038;SDS011;18549;42.286;22.688;2023-08-06T06:12:52;6.07;;;3.70;;
32038;SDS011;18549;42.286;22.688;2023-08-06T06:15:20;6.00;;;3.78;;
32038;SDS011;18549;42.286;22.688;2023-08-06T06:17:47;6.78;;;3.08;;
32038;SDS011;18549;42.286;22.688;2023-08-06T06:20:15;6.20;;;3.28;;
32038;SDS011;18549;42.286;22.688;2023-08-06T06:22:42;5.03;;;3.05;;
32038;SDS011;18549;42.286;22.688;2023-08-06T06:25:10;11.52;;;3.17;;
32038;SDS011;18549;42.286;22.688;2023-08-06T06:27:39;5.37;;;3.28;;
32038;SDS011;18549;42.286;22.688;2023-08-06T06:30:07;4.53;;;2.78;;
32038;SDS011;18549;42.286;22.688;2023-08-06T06:32:37;5.57;;;2.65;;
32038;SDS011;18549;42.286;22.688;2023-08-06T06:35:05;10.20;;;3.85;;
32038;SDS011;18549;42.286;22.688;2023-08-06T06:37:33;4.35;;;2.72;;
32038;SDS011;18549;42.286;22.688;2023-08-06T06:40:00;4.72;;;2.67;;
32038;SDS011;18549;42.286;22.688;2023-08-06T06:42:29;6.22;;;3.53;;
32038;SDS011;18549;42.286;22.688;2023-08-06T06:44:58;6.40;;;2.53;;
32038;SDS011;18549;42.286;22.688;2023-08-06T06:47:25;4.43;;;3.17;;
32038;SDS011;18549;42.286;22.688;2023-08-06T06:49:53;3.72;;;2.10;;
32038;SDS011;18549;42.286;22.688;2023-08-06T06:55:08;6.55;;;3.33;;
32038;SDS011;18549;42.286;22.688;2023-08-06T06:57:35;7.37;;;2.07;;
32038;SDS011;18549;42.286;22.688;2023-08-06T07:00:05;3.78;;;2.05;;
32038;SDS011;18549;42.286;22.688;2023-08-06T07:02:33;4.20;;;2.45;;
32038;SDS011;18549;42.286;22.688;2023-08-06T07:05:01;6.28;;;2.50;;
32038;SDS011;18549;42.286;22.688;2023-08-06T07:07:28;3.65;;;2.28;;
32038;SDS011;18549;42.286;22.688;2023-08-06T07:09:56;3.33;;;2.20;;
32038;SDS011;18549;42.286;22.688;2023-08-06T07:12:24;2.15;;;1.87;;
32038;SDS011;18549;42.286;22.688;2023-08-06T07:14:51;2.62;;;2.12;;
32038;SDS011;18549;42.286;22.688;2023-08-06T07:17:20;2.85;;;1.85;;
32038;SDS011;18549;42.286;22.688;2023-08-06T07:19:47;8.35;;;2.15;;
32038;SDS011;18549;42.286;22.688;2023-08-06T07:22:15;3.75;;;2.03;;
32038;SDS011;18549;42.286;22.688;2023-08-06T07:24:42;4.25;;;2.03;;
32038;SDS011;18549;42.286;22.688;2023-08-06T07:27:09;7.68;;;2.35;;
32038;SDS011;18549;42.286;22.688;2023-08-06T07:29:37;4.68;;;2.15;;
32038;SDS011;18549;42.286;22.688;2023-08-06T07:32:05;3.35;;;2.20;;
32038;SDS011;18549;42.286;22.688;2023-08-06T07:34:35;4.57;;;3.05;;
32038;SDS011;18549;42.286;22.688;2023-08-06T07:37:02;6.62;;;3.62;;
32038;SDS011;18549;42.286;22.688;2023-08-06T07:39:31;7.15;;;4.68;;
32038;SDS011;18549;42.286;22.688;2023-08-06T07:41:58;9.32;;;4.57;;
32038;SDS011;18549;42.286;22.688;2023-08-06T07:44:28;7.78;;;3.25;;
32038;SDS011;18549;42.286;22.688;2023-08-06T07:46:56;3.17;;;2.30;;
32038;SDS011;18549;42.286;22.688;2023-08-06T07:49:23;4.18;;;2.53;;
32038;SDS011;18549;42.286;22.688;2023-08-06T07:51:52;2.58;;;1.83;;
32038;SDS011;18549;42.286;22.688;2023-08-06T07:54:19;2.55;;;1.67;;
32038;SDS011;18549;42.286;22.688;2023-08-06T07:56:47;2.47;;;2.05;;
32038;SDS011;18549;42.286;22.688;2023-08-06T07:59:15;2.58;;;1.70;;
32038;SDS011;18549;42.286;22.688;2023-08-06T08:01:43;3.65;;;2.50;;
32038;SDS011;18549;42.286;22.688;2023-08-06T08:04:10;5.45;;;2.60;;
32038;SDS011;18549;42.286;22.688;2023-08-06T08:06:37;4.90;;;1.83;;
32038;SDS011;18549;42.286;22.688;2023-08-06T08:09:06;5.90;;;1.73;;
32038;SDS011;18549;42.286;22.688;2023-08-06T08:11:34;5.40;;;1.85;;
32038;SDS011;18549;42.286;22.688;2023-08-06T08:14:01;4.20;;;3.20;;
32038;SDS011;18549;42.286;22.688;2023-08-06T08:16:29;2.95;;;1.92;;
32038;SDS011;18549;42.286;22.688;2023-08-06T08:18:56;2.78;;;1.87;;
32038;SDS011;18549;42.286;22.688;2023-08-06T08:21:24;4.57;;;2.10;;
32038;SDS011;18549;42.286;22.688;2023-08-06T08:23:51;2.78;;;1.58;;
32038;SDS011;18549;42.286;22.688;2023-08-06T08:26:20;4.97;;;2.90;;
32038;SDS011;18549;42.286;22.688;2023-08-06T08:28:48;6.50;;;2.22;;
32038;SDS011;18549;42.286;22.688;2023-08-06T08:31:16;4.03;;;1.90;;
32038;SDS011;18549;42.286;22.688;2023-08-06T08:33:43;1.95;;;1.70;;
32038;SDS011;18549;42.286;22.688;2023-08-06T08:36:11;1.95;;;1.65;;
32038;SDS011;18549;42.286;22.688;2023-08-06T08:38:38;5.47;;;2.00;;
32038;SDS011;18549;42.286;22.688;2023-08-06T08:41:09;4.78;;;2.15;;
32038;SDS011;18549;42.286;22.688;2023-08-06T08:43:39;8.18;;;2.53;;
32038;SDS011;18549;42.286;22.688;2023-08-06T08:46:09;5.15;;;2.20;;
32038;SDS011;18549;42.286;22.688;2023-08-06T08:48:39;2.10;;;1.65;;
32038;SDS011;18549;42.286;22.688;2023-08-06T08:51:06;4.03;;;1.98;;
32038;SDS011;18549;42.286;22.688;2023-08-06T08:53:35;5.53;;;2.50;;
32038;SDS011;18549;42.286;22.688;2023-08-06T08:56:04;2.22;;;1.65;;
32038;SDS011;18549;42.286;22.688;2023-08-06T08:58:32;2.45;;;1.42;;
32038;SDS011;18549;42.286;22.688;2023-08-06T09:01:01;4.28;;;2.22;;
32038;SDS011;18549;42.286;22.688;2023-08-06T09:03:30;4.47;;;1.70;;
32038;SDS011;18549;42.286;22.688;2023-08-06T09:05:59;11.77;;;2.08;;
32038;SDS011;18549;42.286;22.688;2023-08-06T09:08:30;5.53;;;1.60;;
32038;SDS011;18549;42.286;22.688;2023-08-06T09:11:01;1.58;;;1.05;;
32038;SDS011;18549;42.286;22.688;2023-08-06T09:13:29;2.58;;;1.37;;
32038;SDS011;18549;42.286;22.688;2023-08-06T09:15:57;2.58;;;1.35;;
32038;SDS011;18549;42.286;22.688;2023-08-06T09:18:29;2.25;;;1.23;;
32038;SDS011;18549;42.286;22.688;2023-08-06T09:20:57;2.12;;;1.00;;
32038;SDS011;18549;42.286;22.688;2023-08-06T09:23:27;4.53;;;1.27;;
32038;SDS011;18549;42.286;22.688;2023-08-06T09:25:56;6.55;;;1.45;;
32038;SDS011;18549;42.286;22.688;2023-08-06T09:28:23;4.65;;;1.35;;
32038;SDS011;18549;42.286;22.688;2023-08-06T09:30:52;2.85;;;1.30;;
32038;SDS011;18549;42.286;22.688;2023-08-06T09:33:22;2.53;;;1.40;;
32038;SDS011;18549;42.286;22.688;2023-08-06T09:35:51;3.92;;;1.10;;
32038;SDS011;18549;42.286;22.688;2023-08-06T09:38:20;1.80;;;1.08;;
32038;SDS011;18549;42.286;22.688;2023-08-06T09:40:48;1.62;;;1.15;;
32038;SDS011;18549;42.286;22.688;2023-08-06T09:43:15;4.50;;;1.33;;
32038;SDS011;18549;42.286;22.688;2023-08-06T09:45:45;9.07;;;1.73;;
32038;SDS011;18549;42.286;22.688;2023-08-06T09:48:13;1.45;;;0.95;;
32038;SDS011;18549;42.286;22.688;2023-08-06T09:50:40;2.17;;;1.48;;
32038;SDS011;18549;42.286;22.688;2023-08-06T09:53:09;2.78;;;1.30;;
32038;SDS011;18549;42.286;22.688;2023-08-06T09:55:36;2.47;;;1.58;;
32038;SDS011;18549;42.286;22.688;2023-08-06T09:58:04;2.45;;;1.40;;
32038;SDS011;18549;42.286;22.688;2023-08-06T10:00:33;2.70;;;1.40;;
32038;SDS011;18549;42.286;22.688;2023-08-06T10:03:01;2.03;;;1.20;;
32038;SDS011;18549;42.286;22.688;2023-08-06T10:05:28;1.83;;;1.37;;
32038;SDS011;18549;42.286;22.688;2023-08-06T10:07:58;1.00;;;0.90;;
32038;SDS011;18549;42.286;22.688;2023-08-06T10:10:30;3.20;;;1.20;;
32038;SDS011;18549;42.286;22.688;2023-08-06T10:12:58;1.65;;;1.12;;
32038;SDS011;18549;42.286;22.688;2023-08-06T10:15:31;3.62;;;1.87;;
32038;SDS011;18549;42.286;22.688;2023-08-06T10:18:01;6.05;;;1.85;;
32038;SDS011;18549;42.286;22.688;2023-08-06T10:20:32;3.17;;;1.55;;
32038;SDS011;18549;42.286;22.688;2023-08-06T10:23:01;2.53;;;1.48;;
32038;SDS011;18549;42.286;22.688;2023-08-06T10:25:34;1.50;;;1.10;;
32038;SDS011;18549;42.286;22.688;2023-08-06T10:28:06;1.77;;;1.33;;
32038;SDS011;18549;42.286;22.688;2023-08-06T10:30:41;6.43;;;1.80;;
32038;SDS011;18549;42.286;22.688;2023-08-06T10:33:10;3.50;;;1.50;;
32038;SDS011;18549;42.286;22.688;2023-08-06T10:35:37;1.80;;;1.25;;
32038;SDS011;18549;42.286;22.688;2023-08-06T10:38:09;3.28;;;1.55;;
32038;SDS011;18549;42.286;22.688;2023-08-06T10:40:40;5.80;;;1.40;;
32038;SDS011;18549;42.286;22.688;2023-08-06T10:43:11;4.70;;;1.77;;
32038;SDS011;18549;42.286;22.688;2023-08-06T10:45:53;1.87;;;1.30;;
32038;SDS011;18549;42.286;22.688;2023-08-06T10:51:07;2.78;;;1.30;;
32038;SDS011;18549;42.286;22.688;2023-08-06T10:53:35;5.55;;;1.20;;
32038;SDS011;18549;42.286;22.688;2023-08-06T10:56:13;3.03;;;1.15;;
32038;SDS011;18549;42.286;22.688;2023-08-06T10:58:40;2.87;;;1.20;;
32038;SDS011;18549;42.286;22.688;2023-08-06T11:01:08;1.75;;;1.17;;
32038;SDS011;18549;42.286;22.688;2023-08-06T11:03:36;2.72;;;1.35;;
32038;SDS011;18549;42.286;22.688;2023-08-06T11:06:04;3.37;;;2.00;;
32038;SDS011;18549;42.286;22.688;2023-08-06T11:08:34;1.30;;;1.13;;
32038;SDS011;18549;42.286;22.688;2023-08-06T11:11:09;3.92;;;1.30;;
32038;SDS011;18549;42.286;22.688;2023-08-06T11:13:39;2.40;;;1.30;;
32038;SDS011;18549;42.286;22.688;2023-08-06T11:16:07;2.60;;;1.37;;
32038;SDS011;18549;42.286;22.688;2023-08-06T11:18:35;2.00;;;1.25;;
32038;SDS011;18549;42.286;22.688;2023-08-06T11:21:02;2.53;;;1.12;;
32038;SDS011;18549;42.286;22.688;2023-08-06T11:23:30;9.77;;;1.25;;
32038;SDS011;18549;42.286;22.688;2023-08-06T11:25:58;4.75;;;1.50;;
32038;SDS011;18549;42.286;22.688;2023-08-06T11:28:25;2.53;;;1.30;;
32038;SDS011;18549;42.286;22.688;2023-08-06T11:30:54;1.40;;;1.20;;
32038;SDS011;18549;42.286;22.688;2023-08-06T11:33:26;1.90;;;1.20;;
32038;SDS011;18549;42.286;22.688;2023-08-06T11:35:56;2.75;;;1.33;;
32038;SDS011;18549;42.286;22.688;2023-08-06T11:38:25;3.78;;;1.70;;
32038;SDS011;18549;42.286;22.688;2023-08-06T11:40:54;2.47;;;1.50;;
32038;SDS011;18549;42.286;22.688;2023-08-06T11:43:22;1.40;;;1.15;;
32038;SDS011;18549;42.286;22.688;2023-08-06T11:45:50;1.40;;;1.30;;
32038;SDS011;18549;42.286;22.688;2023-08-06T11:48:21;6.15;;;1.75;;
32038;SDS011;18549;42.286;22.688;2023-08-06T11:50:48;2.08;;;1.30;;
32038;SDS011;18549;42.286;22.688;2023-08-06T11:53:20;1.85;;;1.15;;
32038;SDS011;18549;42.286;22.688;2023-08-06T11:55:48;1.90;;;1.33;;
32038;SDS011;18549;42.286;22.688;2023-08-06T11:58:17;3.17;;;1.52;;
32038;SDS011;18549;42.286;22.688;2023-08-06T12:00:44;1.55;;;0.93;;
32038;SDS011;18549;42.286;22.688;2023-08-06T12:03:12;2.12;;;1.23;;
32038;SDS011;18549;42.286;22.688;2023-08-06T12:05:41;4.22;;;1.23;;
32038;SDS011;18549;42.286;22.688;2023-08-06T12:08:12;3.05;;;1.40;;
32038;SDS011;18549;42.286;22.688;2023-08-06T12:10:39;3.35;;;1.33;;
32038;SDS011;18549;42.286;22.688;2023-08-06T12:13:07;2.30;;;1.65;;
32038;SDS011;18549;42.286;22.688;2023-08-06T12:15:34;8.10;;;1.37;;
32038;SDS011;18549;42.286;22.688;2023-08-06T12:18:02;1.85;;;1.27;;
32038;SDS011;18549;42.286;22.688;2023-08-06T12:20:29;1.35;;;1.20;;
32038;SDS011;18549;42.286;22.688;2023-08-06T12:22:58;1.10;;;0.80;;
32038;SDS011;18549;42.286;22.688;2023-08-06T12:25:29;1.87;;;1.30;;
32038;SDS011;18549;42.286;22.688;2023-08-06T12:28:06;1.62;;;1.02;;
32038;SDS011;18549;42.286;22.688;2023-08-06T12:30:35;1.80;;;1.20;;
32038;SDS011;18549;42.286;22.688;2023-08-06T12:33:02;4.37;;;1.30;;
32038;SDS011;18549;42.286;22.688;2023-08-06T12:35:30;4.00;;;1.15;;
32038;SDS011;18549;42.286;22.688;2023-08-06T12:37:58;3.70;;;1.33;;
32038;SDS011;18549;42.286;22.688;2023-08-06T12:40:26;0.93;;;0.80;;
32038;SDS011;18549;42.286;22.688;2023-08-06T12:42:53;1.27;;;1.10;;
32038;SDS011;18549;42.286;22.688;2023-08-06T12:45:21;2.10;;;1.20;;
32038;SDS011;18549;42.286;22.688;2023-08-06T12:47:48;4.90;;;1.42;;
32038;SDS011;18549;42.286;22.688;2023-08-06T12:50:16;3.92;;;1.42;;
32038;SDS011;18549;42.286;22.688;2023-08-06T12:52:43;3.25;;;1.52;;
32038;SDS011;18549;42.286;22.688;2023-08-06T12:55:12;1.83;;;1.23;;
32038;SDS011;18549;42.286;22.688;2023-08-06T12:57:40;1.98;;;0.98;;
32038;SDS011;18549;42.286;22.688;2023-08-06T13:00:08;1.67;;;1.20;;
32038;SDS011;18549;42.286;22.688;2023-08-06T13:02:36;2.83;;;0.98;;
32038;SDS011;18549;42.286;22.688;2023-08-06T13:05:05;1.40;;;1.05;;
32038;SDS011;18549;42.286;22.688;2023-08-06T13:07:34;1.40;;;1.10;;
32038;SDS011;18549;42.286;22.688;2023-08-06T13:10:02;3.67;;;1.37;;
32038;SDS011;18549;42.286;22.688;2023-08-06T13:12:31;1.30;;;1.20;;
32038;SDS011;18549;42.286;22.688;2023-08-06T13:14:59;2.03;;;0.93;;
32038;SDS011;18549;42.286;22.688;2023-08-06T13:17:26;2.47;;;1.20;;
32038;SDS011;18549;42.286;22.688;2023-08-06T13:19:53;1.95;;;1.30;;
32038;SDS011;18549;42.286;22.688;2023-08-06T13:22:21;1.83;;;1.23;;
32038;SDS011;18549;42.286;22.688;2023-08-06T13:24:48;3.60;;;1.50;;
32038;SDS011;18549;42.286;22.688;2023-08-06T13:27:16;0.82;;;0.73;;
32038;SDS011;18549;42.286;22.688;2023-08-06T13:29:45;1.50;;;1.00;;
32038;SDS011;18549;42.286;22.688;2023-08-06T13:32:12;1.58;;;1.00;;
32038;SDS011;18549;42.286;22.688;2023-08-06T13:34:40;1.92;;;1.15;;
32038;SDS011;18549;42.286;22.688;2023-08-06T13:37:07;1.90;;;1.00;;
32038;SDS011;18549;42.286;22.688;2023-08-06T13:39:36;2.92;;;1.40;;
32038;SDS011;18549;42.286;22.688;2023-08-06T13:42:03;3.47;;;0.90;;
32038;SDS011;18549;42.286;22.688;2023-08-06T13:44:31;2.55;;;1.10;;
32038;SDS011;18549;42.286;22.688;2023-08-06T13:47:02;9.10;;;1.20;;
32038;SDS011;18549;42.286;22.688;2023-08-06T13:49:29;6.65;;;0.82;;
32038;SDS011;18549;42.286;22.688;2023-08-06T13:51:57;3.42;;;0.80;;
32038;SDS011;18549;42.286;22.688;2023-08-06T13:54:24;2.22;;;0.93;;
32038;SDS011;18549;42.286;22.688;2023-08-06T13:56:51;4.00;;;1.20;;
32038;SDS011;18549;42.286;22.688;2023-08-06T13:59:19;3.70;;;1.33;;
32038;SDS011;18549;42.286;22.688;2023-08-06T14:01:46;1.17;;;1.08;;
32038;SDS011;18549;42.286;22.688;2023-08-06T14:04:15;4.40;;;1.20;;
32038;SDS011;18549;42.286;22.688;2023-08-06T14:06:42;2.17;;;1.40;;
32038;SDS011;18549;42.286;22.688;2023-08-06T14:09:10;1.33;;;1.05;;
32038;SDS011;18549;42.286;22.688;2023-08-06T14:11:39;1.77;;;1.05;;
32038;SDS011;18549;42.286;22.688;2023-08-06T14:14:07;1.90;;;1.30;;
32038;SDS011;18549;42.286;22.688;2023-08-06T14:16:35;1.55;;;1.10;;
32038;SDS011;18549;42.286;22.688;2023-08-06T14:19:02;1.40;;;1.12;;
32038;SDS011;18549;42.286;22.688;2023-08-06T14:21:31;4.78;;;1.10;;
32038;SDS011;18549;42.286;22.688;2023-08-06T14:23:59;1.92;;;1.20;;
32038;SDS011;18549;42.286;22.688;2023-08-06T14:26:26;1.17;;;0.93;;
32038;SDS011;18549;42.286;22.688;2023-08-06T14:28:54;1.30;;;0.90;;
32038;SDS011;18549;42.286;22.688;2023-08-06T14:31:21;2.28;;;1.00;;
32038;SDS011;18549;42.286;22.688;2023-08-06T14:33:49;1.45;;;1.00;;
32038;SDS011;18549;42.286;22.688;2023-08-06T14:36:16;2.25;;;1.00;;
32038;SDS011;18549;42.286;22.688;2023-08-06T14:38:45;6.43;;;1.10;;
32038;SDS011;18549;42.286;22.688;2023-08-06T14:41:13;1.73;;;1.12;;
32038;SDS011;18549;42.286;22.688;2023-08-06T14:43:40;1.33;;;0.90;;
32038;SDS011;18549;42.286;22.688;2023-08-06T14:46:07;5.28;;;1.20;;
32038;SDS011;18549;42.286;22.688;2023-08-06T14:48:35;2.42;;;0.90;;